createdAt,value
2022-12-26T00:03:23.145Z,11.30
2022-12-26T00:08:26.702Z,11.30
2022-12-26T00:13:38.751Z,11.30
2022-12-26T00:18:44.151Z,11.30
2022-12-26T00:23:48.104Z,11.30
2022-12-26T00:28:50.862Z,11.30
2022-12-26T00:33:53.441Z,11.30
2022-12-26T00:38:58.745Z,11.30
2022-12-26T00:44:00.965Z,11.30
2022-12-26T00:49:03.200Z,11.30
2022-12-26T00:54:06.711Z,11.30
2022-12-26T00:59:08.840Z,11.40
2022-12-26T01:04:11.168Z,11.40
2022-12-26T01:09:14.841Z,11.40
2022-12-26T01:14:18.230Z,11.40
2022-12-26T01:19:20.346Z,11.40
2022-12-26T01:24:23.849Z,11.30
2022-12-26T01:29:25.945Z,11.30
2022-12-26T01:34:28.059Z,11.30
2022-12-26T01:39:31.563Z,11.30
2022-12-26T01:45:02.298Z,11.40
2022-12-26T01:50:06.951Z,11.30
2022-12-26T01:55:13.324Z,11.30
2022-12-26T02:00:16.300Z,11.30
2022-12-26T02:05:18.771Z,11.30
2022-12-26T02:10:27.609Z,11.30
2022-12-26T02:15:30.436Z,11.30
2022-12-26T02:20:42.126Z,11.20
2022-12-26T02:26:27.092Z,11.20
2022-12-26T02:31:35.897Z,11.20
2022-12-26T02:36:55.583Z,11.20
2022-12-26T02:42:08.522Z,11.20
2022-12-26T02:47:22.574Z,11.20
2022-12-26T02:52:31.960Z,11.20
2022-12-26T02:57:40.669Z,11.20
2022-12-26T03:02:47.753Z,11.20
2022-12-26T03:07:50.455Z,11.20
2022-12-26T03:12:56.815Z,11.20
2022-12-26T03:18:05.648Z,11.20
2022-12-26T03:23:10.694Z,11.20
2022-12-26T03:28:13.828Z,11.20
2022-12-26T03:33:19.507Z,11.20
2022-12-26T03:38:27.426Z,11.20
2022-12-26T03:43:45.232Z,11.30
2022-12-26T03:48:56.923Z,11.30
2022-12-26T03:54:08.221Z,11.30
2022-12-26T03:59:15.208Z,11.30
2022-12-26T04:04:20.998Z,11.30
2022-12-26T04:09:29.201Z,11.30
2022-12-26T04:14:46.932Z,11.30
2022-12-26T04:20:01.897Z,11.30
2022-12-26T04:25:11.374Z,11.40
2022-12-26T04:30:13.844Z,11.30
2022-12-26T04:35:21.814Z,11.30
2022-12-26T04:40:29.611Z,11.40
2022-12-26T04:45:31.767Z,11.40
2022-12-26T04:50:35.448Z,11.40
2022-12-26T04:55:37.587Z,11.40
2022-12-26T05:00:39.753Z,11.40
2022-12-26T05:05:45.491Z,11.40
2022-12-26T05:10:47.643Z,11.40
2022-12-26T05:15:49.851Z,11.40
2022-12-26T05:20:53.430Z,11.50
2022-12-26T05:25:55.777Z,11.50
2022-12-26T05:30:58.154Z,11.50
2022-12-26T05:36:01.706Z,11.50
2022-12-26T05:41:04.416Z,11.50
2022-12-26T05:46:06.555Z,11.50
2022-12-26T05:51:10.139Z,11.50
2022-12-26T05:56:14.320Z,11.50
2022-12-26T06:01:18.949Z,11.50
2022-12-26T06:06:24.513Z,11.60
2022-12-26T06:11:27.581Z,11.50
2022-12-26T06:16:29.816Z,11.50
2022-12-26T06:21:33.439Z,11.50
2022-12-26T06:26:35.698Z,11.50
2022-12-26T06:31:38.088Z,11.50
2022-12-26T06:36:41.752Z,11.60
2022-12-26T06:41:43.842Z,11.50
2022-12-26T06:46:46.214Z,11.60
2022-12-26T06:51:49.847Z,11.60
2022-12-26T06:56:52.066Z,11.60
2022-12-26T07:01:54.205Z,11.60
2022-12-26T07:06:57.889Z,11.60
2022-12-26T07:12:00.046Z,11.60
2022-12-26T07:17:02.162Z,11.60
2022-12-26T07:22:05.675Z,11.60
2022-12-26T07:27:07.809Z,11.60
2022-12-26T07:32:10.064Z,11.60
2022-12-26T07:37:13.764Z,11.60
2022-12-26T07:42:15.892Z,11.60
2022-12-26T07:47:17.952Z,11.60
2022-12-26T07:52:21.509Z,11.70
2022-12-26T07:57:47.461Z,11.70
2022-12-26T08:02:48.342Z,11.70
2022-12-26T08:07:52.230Z,11.70
2022-12-26T08:12:55.533Z,11.70
2022-12-26T08:17:57.705Z,11.70
2022-12-26T08:23:01.234Z,11.70
2022-12-26T08:28:03.457Z,11.70
2022-12-26T08:33:05.577Z,11.70
2022-12-26T08:38:09.181Z,11.80
2022-12-26T08:43:31.036Z,11.80
2022-12-26T08:48:36.819Z,11.80
2022-12-26T08:53:40.477Z,11.80
2022-12-26T08:58:44.608Z,11.90
2022-12-26T09:03:47.206Z,11.90
2022-12-26T09:08:50.983Z,11.90
2022-12-26T09:13:54.075Z,12.00
2022-12-26T09:18:58.416Z,12.00
2022-12-26T09:24:05.141Z,12.00
2022-12-26T09:29:07.913Z,12.10
2022-12-26T09:34:10.068Z,12.10
2022-12-26T09:39:13.694Z,12.10
2022-12-26T09:44:20.679Z,12.10
2022-12-26T09:49:26.083Z,12.10
2022-12-26T09:54:34.017Z,12.10
2022-12-26T09:59:46.172Z,12.10
2022-12-26T10:04:49.029Z,12.00
2022-12-26T10:10:00.142Z,11.90
2022-12-26T10:15:15.113Z,11.80
2022-12-26T10:20:25.025Z,11.80
2022-12-26T10:25:38.827Z,11.70
2022-12-26T10:30:42.771Z,11.70
2022-12-26T10:35:46.981Z,11.70
2022-12-26T10:40:54.039Z,11.70
2022-12-26T10:46:18.853Z,11.60
2022-12-26T10:51:21.211Z,11.70
2022-12-26T10:56:26.586Z,11.70
2022-12-26T11:01:34.343Z,11.80
2022-12-26T11:06:40.341Z,11.80
2022-12-26T11:11:49.383Z,12.00
2022-12-26T11:16:52.599Z,12.20
2022-12-26T11:21:54.818Z,12.40
2022-12-26T11:27:18.297Z,12.30
2022-12-26T11:32:20.906Z,12.10
2022-12-26T11:37:27.911Z,11.90
2022-12-26T11:42:31.793Z,11.70
2022-12-26T11:47:33.959Z,11.60
2022-12-26T11:52:38.923Z,11.40
2022-12-26T11:57:42.514Z,11.20
2022-12-26T12:02:44.997Z,11.10
2022-12-26T12:07:58.645Z,11.10
2022-12-26T12:13:09.322Z,11.00
2022-12-26T12:18:20.326Z,11.00
2022-12-26T12:23:46.289Z,11.00
2022-12-26T12:29:17.088Z,10.90
2022-12-26T12:34:26.451Z,10.90
2022-12-26T12:39:40.391Z,11.00
2022-12-26T12:44:59.717Z,11.10
2022-12-26T12:50:13.640Z,11.20
2022-12-26T12:55:32.596Z,11.40
2022-12-26T13:00:41.911Z,11.40
2022-12-26T13:05:54.170Z,11.30
2022-12-26T13:11:01.965Z,11.10
2022-12-26T13:16:10.380Z,11.00
2022-12-26T13:21:14.172Z,10.80
2022-12-26T13:26:20.161Z,10.60
2022-12-26T13:31:24.144Z,10.50
2022-12-26T13:36:41.850Z,10.40
2022-12-26T13:41:48.516Z,10.40
2022-12-26T13:46:59.219Z,10.40
2022-12-26T13:52:31.629Z,10.40
2022-12-26T13:57:38.127Z,10.50
2022-12-26T14:03:19.747Z,10.50
2022-12-26T14:08:31.930Z,10.40
2022-12-26T14:13:50.280Z,10.40
2022-12-26T14:19:00.647Z,10.50
2022-12-26T14:24:10.775Z,10.40
2022-12-26T14:29:30.456Z,10.40
2022-12-26T14:34:48.528Z,10.20
2022-12-26T14:40:04.996Z,10.10
2022-12-26T14:45:34.319Z,10.00
2022-12-26T14:50:42.749Z,9.80
2022-12-26T14:55:49.867Z,9.70
2022-12-26T15:00:53.644Z,9.50
2022-12-26T15:06:15.732Z,9.50
2022-12-26T15:11:44.189Z,9.40
2022-12-26T15:17:07.097Z,9.30
2022-12-26T15:22:51.137Z,9.20
2022-12-26T15:28:18.148Z,9.10
2022-12-26T15:33:25.987Z,9.00
2022-12-26T15:38:40.227Z,8.90
2022-12-26T15:44:00.689Z,8.80
2022-12-26T15:49:29.596Z,8.60
2022-12-26T15:55:00.360Z,8.60
2022-12-26T16:00:15.887Z,8.40
2022-12-26T16:05:45.786Z,8.30
2022-12-26T16:11:07.395Z,8.30
2022-12-26T16:16:10.229Z,8.20
2022-12-26T16:21:13.818Z,8.20
2022-12-26T16:26:22.846Z,8.10
2022-12-26T16:31:27.832Z,8.10
2022-12-26T16:36:33.844Z,8.00
2022-12-26T16:41:57.906Z,7.90
2022-12-26T16:47:03.394Z,7.90
2022-12-26T16:52:05.671Z,7.90
2022-12-26T16:57:15.089Z,7.80
2022-12-26T17:02:23.055Z,7.80
2022-12-26T17:07:25.568Z,7.70
2022-12-26T17:12:32.883Z,7.60
2022-12-26T17:17:37.385Z,7.50
2022-12-26T17:22:39.481Z,7.50
2022-12-26T17:27:43.867Z,7.40
2022-12-26T17:32:47.873Z,7.40
2022-12-26T17:37:55.061Z,7.30
2022-12-26T17:43:06.209Z,7.30
2022-12-26T17:48:10.135Z,7.30
2022-12-26T17:53:25.497Z,7.30
2022-12-26T17:58:29.519Z,7.20
2022-12-26T18:03:31.716Z,7.20
2022-12-26T18:08:35.843Z,7.20
2022-12-26T18:13:40.063Z,7.20
2022-12-26T18:18:43.953Z,7.20
2022-12-26T18:23:46.150Z,7.20
2022-12-26T18:28:50.394Z,7.20
2022-12-26T18:33:52.837Z,7.20
2022-12-26T18:38:54.971Z,7.10
2022-12-26T18:43:58.689Z,7.10
2022-12-26T18:49:00.827Z,7.00
2022-12-26T18:54:02.941Z,7.00
2022-12-26T18:59:06.435Z,6.90
2022-12-26T19:04:09.373Z,6.90
2022-12-26T19:09:12.682Z,6.90
2022-12-26T19:14:21.047Z,6.80
2022-12-26T19:19:23.153Z,6.80
2022-12-26T19:24:25.388Z,6.70
2022-12-26T19:29:29.213Z,6.60
2022-12-26T19:34:36.122Z,6.60
2022-12-26T19:39:38.262Z,6.50
2022-12-26T19:44:41.917Z,6.50
2022-12-26T19:49:44.097Z,6.40
2022-12-26T19:54:46.199Z,6.40
2022-12-26T19:59:49.744Z,6.40
2022-12-26T20:04:51.901Z,6.40
2022-12-26T20:09:54.068Z,6.40
2022-12-26T20:14:57.680Z,6.40
2022-12-26T20:19:59.807Z,6.30
2022-12-26T20:25:03.781Z,6.40
2022-12-26T20:30:08.981Z,6.40
2022-12-26T20:35:11.126Z,6.40
2022-12-26T20:40:13.364Z,6.40
2022-12-26T20:45:17.063Z,6.40
2022-12-26T20:50:19.203Z,6.50
2022-12-26T20:55:21.319Z,6.50
2022-12-26T21:00:24.815Z,6.60
2022-12-26T21:05:26.961Z,6.60
2022-12-26T21:10:29.044Z,6.70
2022-12-26T21:15:34.345Z,6.70
2022-12-26T21:20:38.240Z,6.70
2022-12-26T21:25:40.340Z,6.50
2022-12-26T21:30:46.333Z,6.50
2022-12-26T21:35:48.611Z,6.40
2022-12-26T21:40:50.937Z,6.40
2022-12-26T21:46:00.971Z,6.30
2022-12-26T21:51:08.299Z,6.30
2022-12-26T21:56:12.895Z,6.30
2022-12-26T22:01:19.381Z,6.20
2022-12-26T22:06:22.421Z,6.20
2022-12-26T22:11:24.902Z,6.20
2022-12-26T22:16:28.594Z,6.20
2022-12-26T22:21:30.869Z,6.20
2022-12-26T22:26:32.997Z,6.20
2022-12-26T22:31:38.346Z,6.20
2022-12-26T22:36:40.902Z,6.20
2022-12-26T22:41:43.353Z,6.10
2022-12-26T22:46:47.683Z,6.10
2022-12-26T22:51:51.101Z,6.00
2022-12-26T22:56:53.294Z,6.00
2022-12-26T23:01:56.846Z,5.90
2022-12-26T23:06:59.671Z,5.90
2022-12-26T23:12:02.224Z,5.80
2022-12-26T23:17:10.581Z,5.80
2022-12-26T23:22:13.012Z,5.80
2022-12-26T23:27:15.168Z,5.80
2022-12-26T23:32:18.682Z,5.70
2022-12-26T23:37:20.782Z,5.70
2022-12-26T23:42:22.876Z,5.70
2022-12-26T23:47:26.589Z,5.70
2022-12-26T23:52:30.529Z,5.70
2022-12-26T23:57:33.116Z,5.70
